To NAV CANADA Home Page Login to a new session Search on AWWS site Feedback and Comments Disclaimer Vers la page française équivalente Tips FAQ What's new on the site To the Forecasts and Observations / NOTAM section To "File a Flight Plan" website Publications and other links Update of the User's profile FIC Telephone Numbers My Weather Data Folder Route Weather Data Regional Weather Data Local Weather Data To the Forecasts and Observations / NOTAM section
Request Generated 02/11/2016 at 23:14:58 UTC . Weather information available at that time is displayed.

METAR/TAF

HAY RIVER/MERLYN CARTER AIRPORT/NT    

METAR CYHY 112300Z 08011KT 15SM FEW080 SCT220 BKN240 M23/M26 A3063
RMK AC1CS2CI3 SLP400=
METAR CYHY 112200Z 07011KT 15SM FEW070 SCT220 BKN240 M23/M26 A3063
RMK AS1CS2CI3 SLP398=
METAR CYHY 112100Z 08009KT 15SM FEW070 SCT220 BKN240 M23/M27 A3063
RMK AS1CS2CI3 SLP398 DENSITY ALT MISG=

TAF CYHY 111738Z 1118/1206 09005KT P6SM BKN200
BECMG 1204/1206 12012KT
RMK NXT FCST BY 120000Z=
Your time UTC time
Weather data provided by Environment Canada and NAV CANADA